sensor_id;sensor_type;location;lat;lon;timestamp;P1;durP1;ratioP1;P2;durP2;ratioP2
10277;SDS011;5184;51.376;7.148;2023-09-18T00:00:56;9.30;;;7.23;;
10277;SDS011;5184;51.376;7.148;2023-09-18T00:03:23;11.13;;;7.50;;
10277;SDS011;5184;51.376;7.148;2023-09-18T00:05:50;11.30;;;7.07;;
10277;SDS011;5184;51.376;7.148;2023-09-18T00:08:17;11.57;;;7.20;;
10277;SDS011;5184;51.376;7.148;2023-09-18T00:10:49;9.53;;;6.70;;
10277;SDS011;5184;51.376;7.148;2023-09-18T00:13:15;8.30;;;6.90;;
10277;SDS011;5184;51.376;7.148;2023-09-18T00:15:41;11.00;;;7.17;;
10277;SDS011;5184;51.376;7.148;2023-09-18T00:18:08;7.97;;;6.60;;
10277;SDS011;5184;51.376;7.148;2023-09-18T00:20:34;7.80;;;6.60;;
10277;SDS011;5184;51.376;7.148;2023-09-18T00:23:01;11.00;;;7.50;;
10277;SDS011;5184;51.376;7.148;2023-09-18T00:25:28;11.90;;;7.10;;
10277;SDS011;5184;51.376;7.148;2023-09-18T00:27:54;9.87;;;6.13;;
10277;SDS011;5184;51.376;7.148;2023-09-18T00:30:22;7.00;;;6.03;;
10277;SDS011;5184;51.376;7.148;2023-09-18T00:32:48;7.47;;;6.40;;
10277;SDS011;5184;51.376;7.148;2023-09-18T00:35:15;8.23;;;7.17;;
10277;SDS011;5184;51.376;7.148;2023-09-18T00:37:41;10.50;;;6.90;;
10277;SDS011;5184;51.376;7.148;2023-09-18T00:40:08;7.50;;;6.80;;
10277;SDS011;5184;51.376;7.148;2023-09-18T00:42:36;7.33;;;6.63;;
10277;SDS011;5184;51.376;7.148;2023-09-18T00:45:03;8.83;;;6.83;;
10277;SDS011;5184;51.376;7.148;2023-09-18T00:47:29;7.00;;;6.30;;
10277;SDS011;5184;51.376;7.148;2023-09-18T00:49:56;10.37;;;6.50;;
10277;SDS011;5184;51.376;7.148;2023-09-18T00:52:23;8.80;;;6.50;;
10277;SDS011;5184;51.376;7.148;2023-09-18T00:54:51;7.50;;;6.77;;
10277;SDS011;5184;51.376;7.148;2023-09-18T00:57:17;7.67;;;6.47;;
10277;SDS011;5184;51.376;7.148;2023-09-18T00:59:45;8.20;;;6.30;;
10277;SDS011;5184;51.376;7.148;2023-09-18T01:02:11;9.97;;;6.67;;
10277;SDS011;5184;51.376;7.148;2023-09-18T01:04:38;7.53;;;6.57;;
10277;SDS011;5184;51.376;7.148;2023-09-18T01:07:05;9.13;;;6.83;;
10277;SDS011;5184;51.376;7.148;2023-09-18T01:09:33;9.83;;;6.80;;
10277;SDS011;5184;51.376;7.148;2023-09-18T01:12:02;9.47;;;6.90;;
10277;SDS011;5184;51.376;7.148;2023-09-18T01:14:33;9.07;;;7.10;;
10277;SDS011;5184;51.376;7.148;2023-09-18T01:16:58;7.73;;;6.60;;
10277;SDS011;5184;51.376;7.148;2023-09-18T01:22:01;11.13;;;7.40;;
10277;SDS011;5184;51.376;7.148;2023-09-18T01:24:27;7.63;;;6.90;;
10277;SDS011;5184;51.376;7.148;2023-09-18T01:26:54;7.97;;;7.17;;
10277;SDS011;5184;51.376;7.148;2023-09-18T01:29:22;10.57;;;7.60;;
10277;SDS011;5184;51.376;7.148;2023-09-18T01:31:48;9.00;;;7.13;;
10277;SDS011;5184;51.376;7.148;2023-09-18T01:34:16;8.33;;;7.53;;
10277;SDS011;5184;51.376;7.148;2023-09-18T01:36:42;7.60;;;6.83;;
10277;SDS011;5184;51.376;7.148;2023-09-18T01:39:08;11.37;;;7.80;;
10277;SDS011;5184;51.376;7.148;2023-09-18T01:41:35;8.27;;;7.27;;
10277;SDS011;5184;51.376;7.148;2023-09-18T01:44:01;9.03;;;7.67;;
10277;SDS011;5184;51.376;7.148;2023-09-18T01:46:29;9.73;;;7.33;;
10277;SDS011;5184;51.376;7.148;2023-09-18T01:48:56;8.27;;;7.17;;
10277;SDS011;5184;51.376;7.148;2023-09-18T01:51:23;9.67;;;7.60;;
10277;SDS011;5184;51.376;7.148;2023-09-18T01:53:50;8.00;;;7.10;;
10277;SDS011;5184;51.376;7.148;2023-09-18T01:56:16;8.90;;;7.27;;
10277;SDS011;5184;51.376;7.148;2023-09-18T01:58:43;13.13;;;7.30;;
10277;SDS011;5184;51.376;7.148;2023-09-18T02:01:09;9.17;;;6.73;;
10277;SDS011;5184;51.376;7.148;2023-09-18T02:03:36;7.77;;;6.67;;
10277;SDS011;5184;51.376;7.148;2023-09-18T02:06:03;7.73;;;6.47;;
10277;SDS011;5184;51.376;7.148;2023-09-18T02:08:30;7.10;;;6.03;;
10277;SDS011;5184;51.376;7.148;2023-09-18T02:10:56;7.73;;;5.90;;
10277;SDS011;5184;51.376;7.148;2023-09-18T02:13:23;9.30;;;5.50;;
10277;SDS011;5184;51.376;7.148;2023-09-18T02:15:49;8.47;;;5.30;;
10277;SDS011;5184;51.376;7.148;2023-09-18T02:18:17;7.97;;;4.77;;
10277;SDS011;5184;51.376;7.148;2023-09-18T02:20:43;7.90;;;5.37;;
10277;SDS011;5184;51.376;7.148;2023-09-18T02:23:10;5.20;;;4.30;;
10277;SDS011;5184;51.376;7.148;2023-09-18T02:25:37;8.37;;;4.80;;
10277;SDS011;5184;51.376;7.148;2023-09-18T02:28:04;6.47;;;4.33;;
10277;SDS011;5184;51.376;7.148;2023-09-18T02:30:31;5.90;;;4.10;;
10277;SDS011;5184;51.376;7.148;2023-09-18T02:32:57;5.13;;;4.23;;
10277;SDS011;5184;51.376;7.148;2023-09-18T02:35:24;7.70;;;4.30;;
10277;SDS011;5184;51.376;7.148;2023-09-18T02:37:50;6.07;;;4.47;;
10277;SDS011;5184;51.376;7.148;2023-09-18T02:40:17;7.13;;;4.33;;
10277;SDS011;5184;51.376;7.148;2023-09-18T02:42:44;6.73;;;4.03;;
10277;SDS011;5184;51.376;7.148;2023-09-18T02:45:10;7.63;;;4.63;;
10277;SDS011;5184;51.376;7.148;2023-09-18T02:47:37;5.67;;;4.00;;
10277;SDS011;5184;51.376;7.148;2023-09-18T02:50:04;7.33;;;4.17;;
10277;SDS011;5184;51.376;7.148;2023-09-18T02:52:31;5.97;;;3.90;;
10277;SDS011;5184;51.376;7.148;2023-09-18T02:54:58;6.90;;;4.43;;
10277;SDS011;5184;51.376;7.148;2023-09-18T02:57:24;5.90;;;4.13;;
10277;SDS011;5184;51.376;7.148;2023-09-18T02:59:51;7.47;;;3.93;;
10277;SDS011;5184;51.376;7.148;2023-09-18T03:02:18;7.40;;;3.93;;
10277;SDS011;5184;51.376;7.148;2023-09-18T03:04:46;6.53;;;3.83;;
10277;SDS011;5184;51.376;7.148;2023-09-18T03:07:13;5.63;;;3.97;;
10277;SDS011;5184;51.376;7.148;2023-09-18T03:09:41;4.67;;;3.77;;
10277;SDS011;5184;51.376;7.148;2023-09-18T03:12:07;6.90;;;4.10;;
10277;SDS011;5184;51.376;7.148;2023-09-18T03:14:34;7.50;;;4.03;;
10277;SDS011;5184;51.376;7.148;2023-09-18T03:17:01;5.90;;;3.93;;
10277;SDS011;5184;51.376;7.148;2023-09-18T03:19:28;5.87;;;3.63;;
10277;SDS011;5184;51.376;7.148;2023-09-18T03:21:54;7.00;;;3.70;;
10277;SDS011;5184;51.376;7.148;2023-09-18T03:24:21;7.93;;;4.30;;
10277;SDS011;5184;51.376;7.148;2023-09-18T03:26:48;5.70;;;4.10;;
10277;SDS011;5184;51.376;7.148;2023-09-18T03:29:15;7.50;;;3.90;;
10277;SDS011;5184;51.376;7.148;2023-09-18T03:31:42;8.23;;;3.80;;
10277;SDS011;5184;51.376;7.148;2023-09-18T03:34:09;6.20;;;4.07;;
10277;SDS011;5184;51.376;7.148;2023-09-18T03:36:36;5.93;;;3.73;;
10277;SDS011;5184;51.376;7.148;2023-09-18T03:39:02;7.67;;;3.80;;
10277;SDS011;5184;51.376;7.148;2023-09-18T03:41:29;8.77;;;4.40;;
10277;SDS011;5184;51.376;7.148;2023-09-18T03:43:56;6.00;;;3.80;;
10277;SDS011;5184;51.376;7.148;2023-09-18T03:46:22;6.23;;;4.07;;
10277;SDS011;5184;51.376;7.148;2023-09-18T03:48:49;5.53;;;3.57;;
10277;SDS011;5184;51.376;7.148;2023-09-18T03:51:16;7.40;;;3.80;;
10277;SDS011;5184;51.376;7.148;2023-09-18T03:53:43;7.17;;;4.33;;
10277;SDS011;5184;51.376;7.148;2023-09-18T03:56:10;10.20;;;4.40;;
10277;SDS011;5184;51.376;7.148;2023-09-18T03:58:37;9.53;;;4.17;;
10277;SDS011;5184;51.376;7.148;2023-09-18T04:01:04;7.93;;;3.77;;
10277;SDS011;5184;51.376;7.148;2023-09-18T04:03:30;6.67;;;4.00;;
10277;SDS011;5184;51.376;7.148;2023-09-18T04:05:57;8.73;;;4.53;;
10277;SDS011;5184;51.376;7.148;2023-09-18T04:08:24;8.50;;;4.30;;
10277;SDS011;5184;51.376;7.148;2023-09-18T04:10:51;8.97;;;4.37;;
10277;SDS011;5184;51.376;7.148;2023-09-18T04:13:19;6.97;;;3.93;;
10277;SDS011;5184;51.376;7.148;2023-09-18T04:15:45;5.97;;;4.03;;
10277;SDS011;5184;51.376;7.148;2023-09-18T04:18:12;8.37;;;4.40;;
10277;SDS011;5184;51.376;7.148;2023-09-18T04:20:39;9.23;;;4.27;;
10277;SDS011;5184;51.376;7.148;2023-09-18T04:23:22;8.87;;;4.67;;
10277;SDS011;5184;51.376;7.148;2023-09-18T04:25:50;9.67;;;4.90;;
10277;SDS011;5184;51.376;7.148;2023-09-18T04:28:16;5.90;;;4.60;;
10277;SDS011;5184;51.376;7.148;2023-09-18T04:30:43;6.37;;;4.40;;
10277;SDS011;5184;51.376;7.148;2023-09-18T04:33:11;10.63;;;4.20;;
10277;SDS011;5184;51.376;7.148;2023-09-18T04:35:37;6.97;;;4.97;;
10277;SDS011;5184;51.376;7.148;2023-09-18T04:38:04;9.00;;;4.60;;
10277;SDS011;5184;51.376;7.148;2023-09-18T04:40:30;9.30;;;4.50;;
10277;SDS011;5184;51.376;7.148;2023-09-18T04:42:57;8.57;;;4.40;;
10277;SDS011;5184;51.376;7.148;2023-09-18T04:45:24;10.80;;;4.57;;
10277;SDS011;5184;51.376;7.148;2023-09-18T04:47:51;9.97;;;4.43;;
10277;SDS011;5184;51.376;7.148;2023-09-18T04:50:17;9.57;;;4.87;;
10277;SDS011;5184;51.376;7.148;2023-09-18T04:52:44;8.30;;;4.30;;
10277;SDS011;5184;51.376;7.148;2023-09-18T04:55:11;9.00;;;4.73;;
10277;SDS011;5184;51.376;7.148;2023-09-18T04:57:37;10.20;;;4.40;;
10277;SDS011;5184;51.376;7.148;2023-09-18T05:00:04;11.60;;;4.53;;
10277;SDS011;5184;51.376;7.148;2023-09-18T05:02:31;9.30;;;4.27;;
10277;SDS011;5184;51.376;7.148;2023-09-18T05:04:59;7.03;;;4.23;;
10277;SDS011;5184;51.376;7.148;2023-09-18T05:07:26;8.00;;;4.70;;
10277;SDS011;5184;51.376;7.148;2023-09-18T05:09:53;10.87;;;4.27;;
10277;SDS011;5184;51.376;7.148;2023-09-18T05:12:20;8.63;;;4.10;;
10277;SDS011;5184;51.376;7.148;2023-09-18T05:14:47;9.50;;;4.90;;
10277;SDS011;5184;51.376;7.148;2023-09-18T05:17:15;6.30;;;4.40;;
10277;SDS011;5184;51.376;7.148;2023-09-18T05:19:42;9.80;;;4.20;;
10277;SDS011;5184;51.376;7.148;2023-09-18T05:22:08;9.70;;;4.87;;
10277;SDS011;5184;51.376;7.148;2023-09-18T05:24:37;9.87;;;4.70;;
10277;SDS011;5184;51.376;7.148;2023-09-18T05:27:02;7.73;;;4.97;;
10277;SDS011;5184;51.376;7.148;2023-09-18T05:29:29;8.33;;;4.07;;
10277;SDS011;5184;51.376;7.148;2023-09-18T05:31:56;10.40;;;4.77;;
10277;SDS011;5184;51.376;7.148;2023-09-18T05:34:23;20.27;;;4.60;;
10277;SDS011;5184;51.376;7.148;2023-09-18T05:36:51;8.57;;;4.13;;
10277;SDS011;5184;51.376;7.148;2023-09-18T05:39:17;8.73;;;4.17;;
10277;SDS011;5184;51.376;7.148;2023-09-18T05:41:44;8.17;;;4.17;;
10277;SDS011;5184;51.376;7.148;2023-09-18T05:44:11;7.33;;;4.40;;
10277;SDS011;5184;51.376;7.148;2023-09-18T05:46:37;12.93;;;4.67;;
10277;SDS011;5184;51.376;7.148;2023-09-18T05:49:05;7.80;;;4.00;;
10277;SDS011;5184;51.376;7.148;2023-09-18T05:51:32;9.20;;;4.03;;
10277;SDS011;5184;51.376;7.148;2023-09-18T05:54:00;9.10;;;4.17;;
10277;SDS011;5184;51.376;7.148;2023-09-18T05:56:26;11.40;;;4.10;;
10277;SDS011;5184;51.376;7.148;2023-09-18T05:58:53;10.13;;;4.63;;
10277;SDS011;5184;51.376;7.148;2023-09-18T06:01:19;8.50;;;4.03;;
10277;SDS011;5184;51.376;7.148;2023-09-18T06:03:47;8.53;;;3.60;;
10277;SDS011;5184;51.376;7.148;2023-09-18T06:06:14;11.63;;;4.50;;
10277;SDS011;5184;51.376;7.148;2023-09-18T06:08:41;9.17;;;4.00;;
10277;SDS011;5184;51.376;7.148;2023-09-18T06:11:09;7.77;;;3.70;;
10277;SDS011;5184;51.376;7.148;2023-09-18T06:13:35;7.73;;;3.87;;
10277;SDS011;5184;51.376;7.148;2023-09-18T06:16:04;8.13;;;3.80;;
10277;SDS011;5184;51.376;7.148;2023-09-18T06:18:29;10.20;;;3.97;;
10277;SDS011;5184;51.376;7.148;2023-09-18T06:20:56;7.20;;;3.97;;
10277;SDS011;5184;51.376;7.148;2023-09-18T06:23:23;9.07;;;3.83;;
10277;SDS011;5184;51.376;7.148;2023-09-18T06:25:50;8.70;;;4.40;;
10277;SDS011;5184;51.376;7.148;2023-09-18T06:28:17;8.07;;;4.30;;
10277;SDS011;5184;51.376;7.148;2023-09-18T06:30:44;6.87;;;3.93;;
10277;SDS011;5184;51.376;7.148;2023-09-18T06:33:11;8.03;;;4.07;;
10277;SDS011;5184;51.376;7.148;2023-09-18T06:35:39;6.63;;;3.60;;
10277;SDS011;5184;51.376;7.148;2023-09-18T06:38:05;6.57;;;3.60;;
10277;SDS011;5184;51.376;7.148;2023-09-18T06:40:32;9.40;;;3.63;;
10277;SDS011;5184;51.376;7.148;2023-09-18T06:42:59;6.50;;;3.43;;
10277;SDS011;5184;51.376;7.148;2023-09-18T06:45:25;6.97;;;3.07;;
10277;SDS011;5184;51.376;7.148;2023-09-18T06:47:52;8.00;;;3.30;;
10277;SDS011;5184;51.376;7.148;2023-09-18T06:50:19;7.73;;;3.47;;
10277;SDS011;5184;51.376;7.148;2023-09-18T06:52:47;6.67;;;3.13;;
10277;SDS011;5184;51.376;7.148;2023-09-18T06:55:13;8.37;;;3.27;;
10277;SDS011;5184;51.376;7.148;2023-09-18T06:57:40;6.07;;;3.10;;
10277;SDS011;5184;51.376;7.148;2023-09-18T07:00:07;7.23;;;3.30;;
10277;SDS011;5184;51.376;7.148;2023-09-18T07:02:34;6.33;;;3.27;;
10277;SDS011;5184;51.376;7.148;2023-09-18T07:05:00;7.00;;;3.10;;
10277;SDS011;5184;51.376;7.148;2023-09-18T07:07:27;7.67;;;3.23;;
10277;SDS011;5184;51.376;7.148;2023-09-18T07:09:54;5.03;;;3.00;;
10277;SDS011;5184;51.376;7.148;2023-09-18T07:12:21;5.80;;;3.00;;
10277;SDS011;5184;51.376;7.148;2023-09-18T07:14:49;6.13;;;3.07;;
10277;SDS011;5184;51.376;7.148;2023-09-18T07:17:15;4.70;;;2.80;;
10277;SDS011;5184;51.376;7.148;2023-09-18T07:19:41;5.87;;;2.70;;
10277;SDS011;5184;51.376;7.148;2023-09-18T07:22:08;8.13;;;2.80;;
10277;SDS011;5184;51.376;7.148;2023-09-18T07:24:34;5.43;;;2.80;;
10277;SDS011;5184;51.376;7.148;2023-09-18T07:27:01;5.73;;;2.70;;
10277;SDS011;5184;51.376;7.148;2023-09-18T07:29:28;5.43;;;2.87;;
10277;SDS011;5184;51.376;7.148;2023-09-18T07:31:56;4.27;;;2.90;;
10277;SDS011;5184;51.376;7.148;2023-09-18T07:34:23;6.60;;;3.00;;
10277;SDS011;5184;51.376;7.148;2023-09-18T07:36:50;6.30;;;2.57;;
10277;SDS011;5184;51.376;7.148;2023-09-18T07:39:16;7.40;;;2.70;;
10277;SDS011;5184;51.376;7.148;2023-09-18T07:41:43;3.53;;;2.33;;
10277;SDS011;5184;51.376;7.148;2023-09-18T07:44:10;5.87;;;2.47;;
10277;SDS011;5184;51.376;7.148;2023-09-18T07:46:36;5.30;;;2.60;;
10277;SDS011;5184;51.376;7.148;2023-09-18T07:49:03;7.57;;;2.43;;
10277;SDS011;5184;51.376;7.148;2023-09-18T07:51:29;5.93;;;2.70;;
10277;SDS011;5184;51.376;7.148;2023-09-18T07:53:56;6.57;;;2.80;;
10277;SDS011;5184;51.376;7.148;2023-09-18T07:56:23;6.53;;;2.70;;
10277;SDS011;5184;51.376;7.148;2023-09-18T07:58:51;9.87;;;3.10;;
10277;SDS011;5184;51.376;7.148;2023-09-18T08:01:18;28.47;;;3.80;;
10277;SDS011;5184;51.376;7.148;2023-09-18T08:03:45;100.03;;;10.07;;
10277;SDS011;5184;51.376;7.148;2023-09-18T08:06:11;8.43;;;3.07;;
10277;SDS011;5184;51.376;7.148;2023-09-18T08:08:38;6.70;;;2.50;;
10277;SDS011;5184;51.376;7.148;2023-09-18T08:11:07;3.70;;;2.37;;
10277;SDS011;5184;51.376;7.148;2023-09-18T08:13:33;5.40;;;2.30;;
10277;SDS011;5184;51.376;7.148;2023-09-18T08:16:01;5.57;;;2.43;;
10277;SDS011;5184;51.376;7.148;2023-09-18T08:18:27;3.60;;;2.40;;
10277;SDS011;5184;51.376;7.148;2023-09-18T08:20:54;5.57;;;2.47;;
10277;SDS011;5184;51.376;7.148;2023-09-18T08:23:20;4.70;;;2.27;;
10277;SDS011;5184;51.376;7.148;2023-09-18T08:25:47;5.60;;;2.40;;
10277;SDS011;5184;51.376;7.148;2023-09-18T08:28:14;5.10;;;2.50;;
10277;SDS011;5184;51.376;7.148;2023-09-18T08:30:40;6.20;;;2.27;;
10277;SDS011;5184;51.376;7.148;2023-09-18T08:33:07;3.07;;;2.30;;
10277;SDS011;5184;51.376;7.148;2023-09-18T08:35:33;5.57;;;2.40;;
10277;SDS011;5184;51.376;7.148;2023-09-18T08:38:00;5.47;;;2.33;;
10277;SDS011;5184;51.376;7.148;2023-09-18T08:40:27;3.67;;;1.90;;
10277;SDS011;5184;51.376;7.148;2023-09-18T08:42:55;2.87;;;2.20;;
10277;SDS011;5184;51.376;7.148;2023-09-18T08:45:23;4.40;;;2.13;;
10277;SDS011;5184;51.376;7.148;2023-09-18T08:47:50;6.60;;;2.53;;
10277;SDS011;5184;51.376;7.148;2023-09-18T08:50:17;10.13;;;2.67;;
10277;SDS011;5184;51.376;7.148;2023-09-18T08:52:45;13.20;;;3.30;;
10277;SDS011;5184;51.376;7.148;2023-09-18T08:55:11;4.27;;;2.13;;
10277;SDS011;5184;51.376;7.148;2023-09-18T08:57:38;5.60;;;2.47;;
10277;SDS011;5184;51.376;7.148;2023-09-18T09:00:05;7.07;;;2.40;;
10277;SDS011;5184;51.376;7.148;2023-09-18T09:02:33;6.17;;;2.23;;
10277;SDS011;5184;51.376;7.148;2023-09-18T09:04:59;3.10;;;2.00;;
10277;SDS011;5184;51.376;7.148;2023-09-18T09:07:26;3.77;;;2.00;;
10277;SDS011;5184;51.376;7.148;2023-09-18T09:09:52;18.83;;;3.27;;
10277;SDS011;5184;51.376;7.148;2023-09-18T09:15:01;37.13;;;4.63;;
10277;SDS011;5184;51.376;7.148;2023-09-18T09:17:28;3.77;;;2.10;;
10277;SDS011;5184;51.376;7.148;2023-09-18T09:19:54;26.17;;;4.27;;
10277;SDS011;5184;51.376;7.148;2023-09-18T09:22:21;3.80;;;1.97;;
10277;SDS011;5184;51.376;7.148;2023-09-18T09:24:47;3.47;;;1.90;;
10277;SDS011;5184;51.376;7.148;2023-09-18T09:27:15;7.43;;;2.20;;
10277;SDS011;5184;51.376;7.148;2023-09-18T09:29:42;3.57;;;2.00;;
10277;SDS011;5184;51.376;7.148;2023-09-18T09:32:12;3.03;;;1.83;;
10277;SDS011;5184;51.376;7.148;2023-09-18T09:34:45;3.37;;;1.73;;
10277;SDS011;5184;51.376;7.148;2023-09-18T09:37:11;3.60;;;2.07;;
10277;SDS011;5184;51.376;7.148;2023-09-18T09:42:13;2.77;;;2.00;;
10277;SDS011;5184;51.376;7.148;2023-09-18T09:44:39;3.47;;;1.90;;
10277;SDS011;5184;51.376;7.148;2023-09-18T09:47:06;2.30;;;1.67;;
10277;SDS011;5184;51.376;7.148;2023-09-18T09:49:43;6.33;;;2.00;;
10277;SDS011;5184;51.376;7.148;2023-09-18T09:51:59;6.57;;;2.50;;
10277;SDS011;5184;51.376;7.148;2023-09-18T09:54:31;12.83;;;3.13;;
10277;SDS011;5184;51.376;7.148;2023-09-18T09:56:57;9.20;;;2.30;;
10277;SDS011;5184;51.376;7.148;2023-09-18T09:59:24;4.87;;;1.80;;
10277;SDS011;5184;51.376;7.148;2023-09-18T10:01:51;9.77;;;2.37;;
10277;SDS011;5184;51.376;7.148;2023-09-18T10:04:18;3.60;;;2.00;;
10277;SDS011;5184;51.376;7.148;2023-09-18T10:06:45;6.53;;;2.17;;
10277;SDS011;5184;51.376;7.148;2023-09-18T10:09:12;15.30;;;2.53;;
10277;SDS011;5184;51.376;7.148;2023-09-18T10:11:41;3.33;;;1.80;;
10277;SDS011;5184;51.376;7.148;2023-09-18T10:14:09;8.30;;;2.60;;
10277;SDS011;5184;51.376;7.148;2023-09-18T10:16:51;3.27;;;2.00;;
10277;SDS011;5184;51.376;7.148;2023-09-18T10:19:19;3.20;;;1.70;;
10277;SDS011;5184;51.376;7.148;2023-09-18T10:21:59;5.37;;;1.90;;
10277;SDS011;5184;51.376;7.148;2023-09-18T10:24:24;3.13;;;1.90;;
10277;SDS011;5184;51.376;7.148;2023-09-18T10:26:55;3.33;;;1.70;;
10277;SDS011;5184;51.376;7.148;2023-09-18T10:29:21;4.30;;;2.00;;
10277;SDS011;5184;51.376;7.148;2023-09-18T10:31:47;3.67;;;2.03;;
10277;SDS011;5184;51.376;7.148;2023-09-18T10:34:15;7.20;;;2.23;;
10277;SDS011;5184;51.376;7.148;2023-09-18T10:36:42;5.17;;;2.10;;
10277;SDS011;5184;51.376;7.148;2023-09-18T10:39:09;4.07;;;2.00;;
10277;SDS011;5184;51.376;7.148;2023-09-18T10:41:36;3.33;;;1.90;;
10277;SDS011;5184;51.376;7.148;2023-09-18T10:44:02;2.80;;;1.87;;
10277;SDS011;5184;51.376;7.148;2023-09-18T10:46:29;5.17;;;2.20;;
10277;SDS011;5184;51.376;7.148;2023-09-18T10:48:57;4.03;;;1.80;;
10277;SDS011;5184;51.376;7.148;2023-09-18T10:51:23;6.07;;;2.10;;
10277;SDS011;5184;51.376;7.148;2023-09-18T10:53:50;7.73;;;2.10;;
10277;SDS011;5184;51.376;7.148;2023-09-18T10:56:16;4.73;;;2.00;;
10277;SDS011;5184;51.376;7.148;2023-09-18T10:58:43;5.23;;;2.13;;
10277;SDS011;5184;51.376;7.148;2023-09-18T11:01:12;3.67;;;1.83;;
10277;SDS011;5184;51.376;7.148;2023-09-18T11:03:38;4.13;;;1.73;;
10277;SDS011;5184;51.376;7.148;2023-09-18T11:06:05;2.80;;;2.07;;
10277;SDS011;5184;51.376;7.148;2023-09-18T11:08:34;3.20;;;1.77;;
10277;SDS011;5184;51.376;7.148;2023-09-18T11:11:01;3.00;;;1.60;;
10277;SDS011;5184;51.376;7.148;2023-09-18T11:13:30;3.57;;;2.00;;
10277;SDS011;5184;51.376;7.148;2023-09-18T11:15:59;3.90;;;2.00;;
10277;SDS011;5184;51.376;7.148;2023-09-18T11:18:32;3.77;;;2.07;;
10277;SDS011;5184;51.376;7.148;2023-09-18T11:23:34;2.00;;;1.80;;
10277;SDS011;5184;51.376;7.148;2023-09-18T11:26:03;3.20;;;1.70;;
10277;SDS011;5184;51.376;7.148;2023-09-18T11:28:27;3.67;;;2.10;;
10277;SDS011;5184;51.376;7.148;2023-09-18T11:30:55;3.23;;;1.77;;
10277;SDS011;5184;51.376;7.148;2023-09-18T11:33:31;5.77;;;1.83;;
10277;SDS011;5184;51.376;7.148;2023-09-18T11:36:01;4.87;;;1.90;;
10277;SDS011;5184;51.376;7.148;2023-09-18T11:38:29;4.97;;;2.00;;
10277;SDS011;5184;51.376;7.148;2023-09-18T11:40:56;4.50;;;1.80;;
10277;SDS011;5184;51.376;7.148;2023-09-18T11:43:23;5.13;;;2.00;;
10277;SDS011;5184;51.376;7.148;2023-09-18T11:45:49;50.60;;;5.00;;
10277;SDS011;5184;51.376;7.148;2023-09-18T11:48:16;3.27;;;1.83;;
10277;SDS011;5184;51.376;7.148;2023-09-18T11:50:43;5.83;;;1.87;;
10277;SDS011;5184;51.376;7.148;2023-09-18T11:53:11;4.10;;;1.93;;
10277;SDS011;5184;51.376;7.148;2023-09-18T11:55:39;7.97;;;2.30;;
10277;SDS011;5184;51.376;7.148;2023-09-18T11:58:05;3.80;;;1.70;;
10277;SDS011;5184;51.376;7.148;2023-09-18T12:00:32;10.43;;;2.23;;
10277;SDS011;5184;51.376;7.148;2023-09-18T12:03:05;2.70;;;1.90;;
10277;SDS011;5184;51.376;7.148;2023-09-18T12:05:25;3.90;;;1.80;;
10277;SDS011;5184;51.376;7.148;2023-09-18T12:07:52;7.77;;;2.00;;
10277;SDS011;5184;51.376;7.148;2023-09-18T12:10:19;3.83;;;1.70;;
10277;SDS011;5184;51.376;7.148;2023-09-18T12:12:45;2.50;;;1.97;;
10277;SDS011;5184;51.376;7.148;2023-09-18T12:15:12;48.00;;;5.40;;
10277;SDS011;5184;51.376;7.148;2023-09-18T12:17:38;8.27;;;2.23;;
10277;SDS011;5184;51.376;7.148;2023-09-18T12:20:06;5.50;;;2.10;;
10277;SDS011;5184;51.376;7.148;2023-09-18T12:22:33;2.17;;;1.60;;
10277;SDS011;5184;51.376;7.148;2023-09-18T12:27:38;4.57;;;2.10;;
10277;SDS011;5184;51.376;7.148;2023-09-18T12:30:05;4.57;;;2.30;;
10277;SDS011;5184;51.376;7.148;2023-09-18T12:32:31;8.23;;;2.63;;
10277;SDS011;5184;51.376;7.148;2023-09-18T12:34:58;2.50;;;1.80;;
10277;SDS011;5184;51.376;7.148;2023-09-18T12:37:25;3.70;;;1.87;;
10277;SDS011;5184;51.376;7.148;2023-09-18T12:39:53;5.20;;;2.13;;
10277;SDS011;5184;51.376;7.148;2023-09-18T12:42:20;3.70;;;1.80;;
10277;SDS011;5184;51.376;7.148;2023-09-18T12:44:48;2.83;;;1.77;;
10277;SDS011;5184;51.376;7.148;2023-09-18T12:47:15;3.00;;;1.70;;
10277;SDS011;5184;51.376;7.148;2023-09-18T12:49:41;2.50;;;1.90;;
10277;SDS011;5184;51.376;7.148;2023-09-18T12:52:08;2.53;;;1.83;;
10277;SDS011;5184;51.376;7.148;2023-09-18T12:54:37;3.03;;;2.20;;
10277;SDS011;5184;51.376;7.148;2023-09-18T12:57:05;3.50;;;1.90;;
10277;SDS011;5184;51.376;7.148;2023-09-18T12:59:32;4.10;;;1.90;;
10277;SDS011;5184;51.376;7.148;2023-09-18T13:01:58;3.27;;;1.80;;
10277;SDS011;5184;51.376;7.148;2023-09-18T13:04:25;5.27;;;2.20;;
10277;SDS011;5184;51.376;7.148;2023-09-18T13:09:28;3.60;;;1.90;;
10277;SDS011;5184;51.376;7.148;2023-09-18T13:11:56;3.03;;;1.97;;
10277;SDS011;5184;51.376;7.148;2023-09-18T13:14:22;4.33;;;1.93;;
10277;SDS011;5184;51.376;7.148;2023-09-18T13:16:49;4.60;;;1.90;;
10277;SDS011;5184;51.376;7.148;2023-09-18T13:19:16;2.17;;;1.73;;
10277;SDS011;5184;51.376;7.148;2023-09-18T13:21:46;5.63;;;2.13;;
10277;SDS011;5184;51.376;7.148;2023-09-18T13:24:32;3.00;;;2.10;;
10277;SDS011;5184;51.376;7.148;2023-09-18T13:26:58;3.57;;;2.93;;
10277;SDS011;5184;51.376;7.148;2023-09-18T13:29:26;4.33;;;2.07;;
10277;SDS011;5184;51.376;7.148;2023-09-18T13:31:53;3.60;;;2.20;;
10277;SDS011;5184;51.376;7.148;2023-09-18T13:34:20;35.43;;;5.40;;
10277;SDS011;5184;51.376;7.148;2023-09-18T13:36:48;2.47;;;2.00;;
10277;SDS011;5184;51.376;7.148;2023-09-18T13:39:15;3.27;;;2.27;;
10277;SDS011;5184;51.376;7.148;2023-09-18T13:41:43;4.17;;;2.13;;
10277;SDS011;5184;51.376;7.148;2023-09-18T13:44:09;2.67;;;2.10;;
10277;SDS011;5184;51.376;7.148;2023-09-18T13:46:37;2.70;;;1.90;;
10277;SDS011;5184;51.376;7.148;2023-09-18T13:49:03;3.23;;;1.90;;
10277;SDS011;5184;51.376;7.148;2023-09-18T13:51:30;2.83;;;2.17;;
10277;SDS011;5184;51.376;7.148;2023-09-18T13:53:56;3.67;;;2.20;;
10277;SDS011;5184;51.376;7.148;2023-09-18T13:56:23;2.93;;;1.77;;
10277;SDS011;5184;51.376;7.148;2023-09-18T13:58:50;3.23;;;2.20;;
10277;SDS011;5184;51.376;7.148;2023-09-18T14:01:18;2.87;;;1.80;;
10277;SDS011;5184;51.376;7.148;2023-09-18T14:03:45;2.23;;;2.03;;
10277;SDS011;5184;51.376;7.148;2023-09-18T14:06:12;4.40;;;2.20;;
10277;SDS011;5184;51.376;7.148;2023-09-18T14:08:40;2.83;;;1.80;;
10277;SDS011;5184;51.376;7.148;2023-09-18T14:11:07;2.93;;;1.83;;
10277;SDS011;5184;51.376;7.148;2023-09-18T14:13:35;3.73;;;2.00;;
10277;SDS011;5184;51.376;7.148;2023-09-18T14:16:01;3.40;;;1.87;;
10277;SDS011;5184;51.376;7.148;2023-09-18T14:18:28;2.70;;;1.60;;
10277;SDS011;5184;51.376;7.148;2023-09-18T14:20:54;5.10;;;1.80;;
10277;SDS011;5184;51.376;7.148;2023-09-18T14:23:21;4.70;;;2.20;;
10277;SDS011;5184;51.376;7.148;2023-09-18T14:25:47;3.63;;;1.80;;
10277;SDS011;5184;51.376;7.148;2023-09-18T14:28:14;2.63;;;1.60;;
10277;SDS011;5184;51.376;7.148;2023-09-18T14:30:41;3.20;;;1.80;;
10277;SDS011;5184;51.376;7.148;2023-09-18T14:33:09;5.07;;;1.80;;
10277;SDS011;5184;51.376;7.148;2023-09-18T14:35:35;3.30;;;1.80;;
10277;SDS011;5184;51.376;7.148;2023-09-18T14:38:02;3.23;;;1.80;;
10277;SDS011;5184;51.376;7.148;2023-09-18T14:40:29;4.57;;;2.00;;
10277;SDS011;5184;51.376;7.148;2023-09-18T14:42:56;2.63;;;1.63;;
10277;SDS011;5184;51.376;7.148;2023-09-18T14:45:22;4.27;;;1.87;;
10277;SDS011;5184;51.376;7.148;2023-09-18T14:47:50;4.13;;;1.90;;
10277;SDS011;5184;51.376;7.148;2023-09-18T14:50:17;3.33;;;1.93;;
10277;SDS011;5184;51.376;7.148;2023-09-18T14:52:45;4.63;;;2.00;;
10277;SDS011;5184;51.376;7.148;2023-09-18T14:55:11;4.63;;;1.60;;
10277;SDS011;5184;51.376;7.148;2023-09-18T14:57:38;5.60;;;1.70;;
10277;SDS011;5184;51.376;7.148;2023-09-18T15:00:05;3.67;;;2.10;;
10277;SDS011;5184;51.376;7.148;2023-09-18T15:02:32;2.60;;;1.90;;
10277;SDS011;5184;51.376;7.148;2023-09-18T15:04:59;5.60;;;1.90;;
10277;SDS011;5184;51.376;7.148;2023-09-18T15:07:25;2.50;;;1.83;;
10277;SDS011;5184;51.376;7.148;2023-09-18T15:09:53;2.40;;;1.80;;
10277;SDS011;5184;51.376;7.148;2023-09-18T15:12:19;3.67;;;1.60;;
10277;SDS011;5184;51.376;7.148;2023-09-18T15:14:46;3.70;;;1.67;;